Time;durP1;ratioP1;P1;durP2;ratioP2;P2;SDS_P1;SDS_P2;PMS_P1;PMS_P2;Temp;Humidity;BMP_temperature;BMP_pressure;BME280_temperature;BME280_humidity;BME280_pressure;Samples;Min_cycle;Max_cycle;Signal;HPM_P1;HPM_P2
2024/01/21 00:01:14;;;;;;;;;;;11.60;99.90;;;;;;5070242;28;20237;-63
2024/01/21 00:03:40;;;;;;;;;;;11.60;99.90;;;;;;5070149;28;19909;-64
2024/01/21 00:06:06;;;;;;;;;;;11.60;99.90;;;;;;5070248;28;19954;-64
2024/01/21 00:08:32;;;;;;;;;;;11.60;99.90;;;;;;5069984;28;19993;-64
2024/01/21 00:10:58;;;;;;;;;;;11.50;99.90;;;;;;5070257;28;19916;-63
2024/01/21 00:13:24;;;;;;;;;;;11.50;99.90;;;;;;5070346;28;19959;-64
2024/01/21 00:15:50;;;;;;;;;;;11.30;99.90;;;;;;5070041;28;20336;-63
2024/01/21 00:18:16;;;;;;;;;;;11.30;99.90;;;;;;5070152;28;19908;-64
2024/01/21 00:20:42;;;;;;;;;;;11.20;99.90;;;;;;5070774;28;19909;-64
2024/01/21 00:23:08;;;;;;;;;;;11.20;99.90;;;;;;5073946;28;19909;-64
2024/01/21 00:25:34;;;;;;;;;;;11.30;99.90;;;;;;5073899;28;19912;-63
2024/01/21 00:28:00;;;;;;;;;;;11.30;99.90;;;;;;5073830;28;19908;-64
2024/01/21 00:30:26;;;;;;;;;;;11.30;99.90;;;;;;5074180;28;19999;-64
2024/01/21 00:32:52;;;;;;;;;;;11.20;99.90;;;;;;5073705;28;19913;-63
2024/01/21 00:35:19;;;;;;;;;;;11.20;99.90;;;;;;5073818;28;19995;-64
2024/01/21 00:37:45;;;;;;;;;;;11.10;99.90;;;;;;5073484;28;19956;-63
2024/01/21 00:40:11;;;;;;;;;;;11.10;99.90;;;;;;5073552;28;20332;-64
2024/01/21 00:42:36;;;;;;;;;;;11.20;99.90;;;;;;5073589;28;19908;-63
2024/01/21 00:45:03;;;;;;;;;;;11.10;99.90;;;;;;5073420;28;19912;-63
2024/01/21 00:47:29;;;;;;;;;;;11.10;99.90;;;;;;5073663;28;19912;-63
2024/01/21 00:49:55;;;;;;;;;;;11.20;99.90;;;;;;5073475;28;19964;-63
2024/01/21 00:52:21;;;;;;;;;;;11.00;99.90;;;;;;5073395;28;19923;-63
2024/01/21 00:54:46;;;;;;;;;;;11.00;99.90;;;;;;5073114;28;19913;-64
2024/01/21 00:57:12;;;;;;;;;;;11.10;99.90;;;;;;5073320;28;20003;-63
2024/01/21 00:59:38;;;;;;;;;;;11.10;99.90;;;;;;5073388;28;19908;-64
2024/01/21 01:02:05;;;;;;;;;;;11.00;99.90;;;;;;5073529;28;20015;-64
2024/01/21 01:04:31;;;;;;;;;;;11.10;99.90;;;;;;5073672;28;19948;-63
2024/01/21 01:06:56;;;;;;;;;;;11.00;99.90;;;;;;5073379;28;19919;-64
2024/01/21 01:09:22;;;;;;;;;;;10.90;99.90;;;;;;5073247;28;19912;-63
2024/01/21 01:11:48;;;;;;;;;;;10.90;99.90;;;;;;5073425;28;20487;-63
2024/01/21 01:14:14;;;;;;;;;;;10.80;99.90;;;;;;5073024;28;19908;-63
2024/01/21 01:16:40;;;;;;;;;;;10.70;99.90;;;;;;5073186;28;19908;-64
2024/01/21 01:19:06;;;;;;;;;;;10.70;99.90;;;;;;5073119;28;19909;-64
2024/01/21 01:21:32;;;;;;;;;;;10.70;99.90;;;;;;5073388;28;19920;-64
2024/01/21 01:23:58;;;;;;;;;;;10.60;99.90;;;;;;5072687;28;19908;-63
2024/01/21 01:26:24;;;;;;;;;;;10.70;99.90;;;;;;5054779;28;19909;-64
2024/01/21 01:28:50;;;;;;;;;;;10.70;99.90;;;;;;5072442;28;19932;-63
2024/01/21 01:31:19;;;;;;;;;;;10.60;99.90;;;;;;5072916;28;19927;-64
2024/01/21 01:33:45;;;;;;;;;;;10.60;99.90;;;;;;5071641;28;19908;-64
2024/01/21 01:36:11;;;;;;;;;;;10.60;99.90;;;;;;5072925;28;19912;-64
2024/01/21 01:38:37;;;;;;;;;;;10.60;99.90;;;;;;5072465;28;19909;-64
2024/01/21 01:41:04;;;;;;;;;;;10.60;99.90;;;;;;5072489;28;20024;-64
2024/01/21 01:43:30;;;;;;;;;;;10.60;99.90;;;;;;5072541;28;19908;-63
2024/01/21 01:45:56;;;;;;;;;;;10.60;99.90;;;;;;5072399;28;19915;-63
2024/01/21 01:48:22;;;;;;;;;;;10.60;99.90;;;;;;5072324;28;19912;-62
2024/01/21 01:50:48;;;;;;;;;;;10.60;99.90;;;;;;5072217;28;19981;-63
2024/01/21 01:53:15;;;;;;;;;;;10.50;99.90;;;;;;5072131;28;19912;-63
2024/01/21 01:55:41;;;;;;;;;;;10.50;99.90;;;;;;5054086;28;19920;-63
2024/01/21 01:58:07;;;;;;;;;;;10.40;99.90;;;;;;5072192;28;19950;-64
2024/01/21 02:00:33;;;;;;;;;;;10.40;99.90;;;;;;5072381;28;19971;-63
2024/01/21 02:02:59;;;;;;;;;;;10.40;99.90;;;;;;5054109;28;19912;-64
2024/01/21 02:05:25;;;;;;;;;;;10.40;99.90;;;;;;5072378;28;19916;-63
2024/01/21 02:07:51;;;;;;;;;;;10.40;99.90;;;;;;5053788;28;19908;-64
2024/01/21 02:10:17;;;;;;;;;;;10.30;99.90;;;;;;5072145;28;19909;-60
2024/01/21 02:12:43;;;;;;;;;;;10.40;99.90;;;;;;5053890;28;19928;-63
2024/01/21 02:15:09;;;;;;;;;;;10.40;99.90;;;;;;5071906;28;19935;-64
2024/01/21 02:17:35;;;;;;;;;;;10.40;99.90;;;;;;5053835;28;20003;-64
2024/01/21 02:20:01;;;;;;;;;;;10.40;99.90;;;;;;5072253;28;19943;-64
2024/01/21 02:22:28;;;;;;;;;;;10.30;99.90;;;;;;5072003;28;19908;-63
2024/01/21 02:24:55;;;;;;;;;;;10.40;99.90;;;;;;5053565;28;20368;-63
2024/01/21 02:27:21;;;;;;;;;;;10.40;99.90;;;;;;5071741;28;19954;-63
2024/01/21 02:29:47;;;;;;;;;;;10.30;99.90;;;;;;5071597;28;19991;-62
2024/01/21 02:32:13;;;;;;;;;;;10.20;99.90;;;;;;5053365;28;19917;-63
2024/01/21 02:34:39;;;;;;;;;;;10.20;99.90;;;;;;5053440;28;20276;-64
2024/01/21 02:37:05;;;;;;;;;;;10.20;99.90;;;;;;5053347;28;19952;-64
2024/01/21 02:39:31;;;;;;;;;;;10.20;99.90;;;;;;5071157;28;19931;-64
2024/01/21 02:41:56;;;;;;;;;;;10.20;99.90;;;;;;5071759;28;19908;-64
2024/01/21 02:44:22;;;;;;;;;;;10.20;99.90;;;;;;5071275;28;19925;-64
2024/01/21 02:46:48;;;;;;;;;;;10.20;99.90;;;;;;5071866;28;20011;-63
2024/01/21 02:49:14;;;;;;;;;;;10.20;99.90;;;;;;5071385;28;19923;-63
2024/01/21 02:51:39;;;;;;;;;;;10.20;99.90;;;;;;5071052;28;19960;-63
2024/01/21 02:54:06;;;;;;;;;;;10.20;99.90;;;;;;5071155;28;19928;-63
2024/01/21 02:56:32;;;;;;;;;;;10.20;99.90;;;;;;5071192;28;19908;-63
2024/01/21 02:58:58;;;;;;;;;;;10.20;99.90;;;;;;5070195;28;19965;-63
2024/01/21 03:01:23;;;;;;;;;;;10.20;99.90;;;;;;5071327;28;19916;-62
2024/01/21 03:03:50;;;;;;;;;;;10.20;99.90;;;;;;5071017;28;19909;-62
2024/01/21 03:06:16;;;;;;;;;;;10.20;99.90;;;;;;5060521;28;19916;-63
2024/01/21 03:08:42;;;;;;;;;;;10.20;99.90;;;;;;5070771;28;20281;-63
2024/01/21 03:11:08;;;;;;;;;;;10.20;99.90;;;;;;5071211;28;19916;-62
2024/01/21 03:13:34;;;;;;;;;;;10.20;99.90;;;;;;5071039;28;19912;-63
2024/01/21 03:16:00;;;;;;;;;;;10.10;99.90;;;;;;5070882;28;20318;-63
2024/01/21 03:18:26;;;;;;;;;;;10.20;99.90;;;;;;5052579;28;20047;-62
2024/01/21 03:20:55;;;;;;;;;;;10.20;99.90;;;;;;5071033;28;20002;-64
2024/01/21 03:23:22;;;;;;;;;;;10.10;99.90;;;;;;5070948;28;19912;-63
2024/01/21 03:25:47;;;;;;;;;;;10.20;99.90;;;;;;5052628;28;19919;-63
2024/01/21 03:28:13;;;;;;;;;;;10.20;99.90;;;;;;5070714;28;19912;-63
2024/01/21 03:30:39;;;;;;;;;;;10.20;99.90;;;;;;5070841;28;19958;-63
2024/01/21 03:33:05;;;;;;;;;;;10.20;99.90;;;;;;5052716;28;20057;-62
2024/01/21 03:35:31;;;;;;;;;;;10.20;99.90;;;;;;5070774;28;19958;-63
2024/01/21 03:37:56;;;;;;;;;;;10.20;99.90;;;;;;5070768;28;19920;-63
2024/01/21 03:40:22;;;;;;;;;;;10.10;99.90;;;;;;5070355;28;20525;-63
2024/01/21 03:42:48;;;;;;;;;;;10.20;99.90;;;;;;5052405;28;20020;-61
2024/01/21 03:45:14;;;;;;;;;;;10.20;99.90;;;;;;5070794;28;19909;-62
2024/01/21 03:47:40;;;;;;;;;;;10.20;99.90;;;;;;5052345;28;19908;-65
2024/01/21 03:50:06;;;;;;;;;;;10.20;99.90;;;;;;5070498;28;20336;-62
2024/01/21 03:52:31;;;;;;;;;;;10.20;99.90;;;;;;5070565;28;19923;-62
2024/01/21 03:54:57;;;;;;;;;;;10.20;99.90;;;;;;5070191;28;19955;-62
2024/01/21 03:57:23;;;;;;;;;;;10.20;99.90;;;;;;5073647;28;19952;-62
2024/01/21 03:59:49;;;;;;;;;;;10.20;99.90;;;;;;5074460;28;20383;-63
2024/01/21 04:02:15;;;;;;;;;;;10.20;99.90;;;;;;5074732;28;19919;-63
2024/01/21 04:04:41;;;;;;;;;;;10.20;99.90;;;;;;5062166;28;19909;-63
2024/01/21 04:07:06;;;;;;;;;;;10.10;99.90;;;;;;5074407;28;19908;-63
2024/01/21 04:09:32;;;;;;;;;;;10.20;99.90;;;;;;5073250;28;19908;-62
2024/01/21 04:11:58;;;;;;;;;;;10.20;99.90;;;;;;5072200;28;20104;-61
2024/01/21 04:14:24;;;;;;;;;;;10.20;99.90;;;;;;5074089;28;19908;-62
2024/01/21 04:16:50;;;;;;;;;;;10.20;99.90;;;;;;5074010;28;19909;-63
2024/01/21 04:19:19;;;;;;;;;;;10.20;99.90;;;;;;5074265;28;19912;-64
2024/01/21 04:21:45;;;;;;;;;;;10.30;99.90;;;;;;5074093;28;20125;-63
2024/01/21 04:24:11;;;;;;;;;;;10.30;99.90;;;;;;5073889;28;19916;-63
2024/01/21 04:26:36;;;;;;;;;;;10.20;99.90;;;;;;5073897;28;20296;-62
2024/01/21 04:29:02;;;;;;;;;;;10.10;99.90;;;;;;5073992;28;19928;-63
2024/01/21 04:31:28;;;;;;;;;;;10.10;99.90;;;;;;5073963;28;20420;-63
2024/01/21 04:33:54;;;;;;;;;;;10.00;99.90;;;;;;5073910;28;19908;-63
2024/01/21 04:36:22;;;;;;;;;;;10.00;99.90;;;;;;5073689;28;19931;-63
2024/01/21 04:38:48;;;;;;;;;;;10.10;99.90;;;;;;5055305;28;19916;-63
2024/01/21 04:41:14;;;;;;;;;;;10.10;99.90;;;;;;5073424;28;19920;-63
2024/01/21 04:43:40;;;;;;;;;;;10.10;99.90;;;;;;5073904;28;19909;-63
2024/01/21 04:46:06;;;;;;;;;;;10.20;99.90;;;;;;5073434;28;19909;-63
2024/01/21 04:48:32;;;;;;;;;;;10.20;99.90;;;;;;5073362;28;19931;-63
2024/01/21 04:50:58;;;;;;;;;;;10.20;99.90;;;;;;5073774;28;19913;-63
2024/01/21 04:53:24;;;;;;;;;;;10.10;99.90;;;;;;5073859;28;20330;-63
2024/01/21 04:55:50;;;;;;;;;;;10.10;99.90;;;;;;5074061;28;19948;-63
2024/01/21 04:58:16;;;;;;;;;;;10.00;99.90;;;;;;5073907;28;19908;-63
2024/01/21 05:00:41;;;;;;;;;;;10.10;99.90;;;;;;5073837;28;19995;-63
2024/01/21 05:03:07;;;;;;;;;;;10.10;99.90;;;;;;5073832;28;19951;-62
2024/01/21 05:05:33;;;;;;;;;;;10.10;99.90;;;;;;5073724;28;19935;-61
2024/01/21 05:07:59;;;;;;;;;;;10.00;99.90;;;;;;5055639;28;19909;-63
2024/01/21 05:10:25;;;;;;;;;;;10.00;99.90;;;;;;5073495;28;19935;-63
2024/01/21 05:12:50;;;;;;;;;;;10.00;99.90;;;;;;5073708;28;19916;-60
2024/01/21 05:15:16;;;;;;;;;;;10.10;99.90;;;;;;5073511;28;19909;-63
2024/01/21 05:17:42;;;;;;;;;;;10.10;99.90;;;;;;5055328;28;20001;-62
2024/01/21 05:20:08;;;;;;;;;;;10.10;99.90;;;;;;5073612;28;19912;-63
2024/01/21 05:22:35;;;;;;;;;;;10.20;99.90;;;;;;5073512;28;20373;-62
2024/01/21 05:25:00;;;;;;;;;;;10.10;99.90;;;;;;5073271;28;19909;-63
2024/01/21 05:27:27;;;;;;;;;;;10.10;99.90;;;;;;5073410;28;19931;-63
2024/01/21 05:29:53;;;;;;;;;;;10.10;99.90;;;;;;5073240;28;19979;-63
2024/01/21 05:32:18;;;;;;;;;;;10.00;99.90;;;;;;5073467;28;19979;-63
2024/01/21 05:34:44;;;;;;;;;;;10.10;99.90;;;;;;5055214;28;19908;-63
2024/01/21 05:37:10;;;;;;;;;;;10.10;99.90;;;;;;5073572;28;19951;-63
2024/01/21 05:39:36;;;;;;;;;;;10.10;99.90;;;;;;5054667;28;20233;-62
2024/01/21 05:42:02;;;;;;;;;;;10.10;99.90;;;;;;5073998;28;19930;-63
2024/01/21 05:44:28;;;;;;;;;;;10.00;99.90;;;;;;5054918;28;19908;-63
2024/01/21 05:46:54;;;;;;;;;;;10.10;99.90;;;;;;5073151;28;19919;-63
2024/01/21 05:49:21;;;;;;;;;;;10.10;99.90;;;;;;5072991;28;20382;-61
2024/01/21 05:51:46;;;;;;;;;;;10.00;99.90;;;;;;5073223;28;20303;-63
2024/01/21 05:54:12;;;;;;;;;;;9.90;99.90;;;;;;5072811;28;20093;-63
2024/01/21 05:56:38;;;;;;;;;;;9.80;99.90;;;;;;5073213;28;19909;-62
2024/01/21 05:59:04;;;;;;;;;;;9.90;99.90;;;;;;5072936;28;19912;-63
2024/01/21 06:01:30;;;;;;;;;;;9.90;99.90;;;;;;5073088;28;19915;-63
2024/01/21 06:03:56;;;;;;;;;;;10.00;99.90;;;;;;5054576;28;20289;-63
2024/01/21 06:06:21;;;;;;;;;;;10.20;99.90;;;;;;5054587;28;19915;-63
2024/01/21 06:08:47;;;;;;;;;;;10.10;99.90;;;;;;5072397;28;20267;-63
2024/01/21 06:11:16;;;;;;;;;;;10.20;99.90;;;;;;5072541;28;19963;-61
2024/01/21 06:13:42;;;;;;;;;;;10.20;99.90;;;;;;5072761;28;19955;-63
2024/01/21 06:16:07;;;;;;;;;;;10.30;99.90;;;;;;5053910;28;19959;-63
2024/01/21 06:18:33;;;;;;;;;;;10.30;99.90;;;;;;5071390;28;20253;-62
2024/01/21 06:20:59;;;;;;;;;;;10.20;99.90;;;;;;5072287;28;19969;-63
2024/01/21 06:23:26;;;;;;;;;;;10.20;99.90;;;;;;5072208;28;20007;-63
2024/01/21 06:25:52;;;;;;;;;;;10.30;99.90;;;;;;5072416;28;19975;-63
2024/01/21 06:28:18;;;;;;;;;;;10.20;99.90;;;;;;5072393;28;20025;-63
2024/01/21 06:30:44;;;;;;;;;;;10.20;99.90;;;;;;5072190;28;19912;-62
2024/01/21 06:33:11;;;;;;;;;;;10.20;99.90;;;;;;5072131;28;19912;-63
2024/01/21 06:35:37;;;;;;;;;;;10.30;99.90;;;;;;5070943;28;20036;-63
2024/01/21 06:38:03;;;;;;;;;;;10.50;99.90;;;;;;5072479;28;20016;-63
2024/01/21 06:40:29;;;;;;;;;;;10.70;99.90;;;;;;5071740;28;19975;-63
2024/01/21 06:42:54;;;;;;;;;;;11.20;99.90;;;;;;5072400;28;19909;-63
2024/01/21 06:45:20;;;;;;;;;;;11.70;99.90;;;;;;5054100;28;20349;-63
2024/01/21 06:47:46;;;;;;;;;;;12.10;99.90;;;;;;5072313;28;19909;-63
2024/01/21 06:50:12;;;;;;;;;;;12.60;99.90;;;;;;5071869;28;19940;-63
2024/01/21 06:52:38;;;;;;;;;;;12.80;99.90;;;;;;5071797;28;19917;-63
2024/01/21 06:55:04;;;;;;;;;;;13.20;99.90;;;;;;5072068;28;20280;-62
2024/01/21 06:57:30;;;;;;;;;;;13.60;99.90;;;;;;5071845;28;19995;-64
2024/01/21 06:59:56;;;;;;;;;;;14.10;99.90;;;;;;5053750;28;19952;-63
2024/01/21 07:02:23;;;;;;;;;;;14.30;99.90;;;;;;5071975;28;19909;-66
2024/01/21 07:04:48;;;;;;;;;;;14.60;99.90;;;;;;5071814;28;19908;-64
2024/01/21 07:07:14;;;;;;;;;;;15.20;99.90;;;;;;5072073;28;19931;-62
2024/01/21 07:09:41;;;;;;;;;;;15.90;99.90;;;;;;5071375;28;19924;-64
2024/01/21 07:12:08;;;;;;;;;;;16.50;99.90;;;;;;5071492;28;20007;-64
2024/01/21 07:14:34;;;;;;;;;;;16.60;99.90;;;;;;5071519;28;20004;-64
2024/01/21 07:17:04;;;;;;;;;;;17.40;99.90;;;;;;5071425;28;20050;-64
2024/01/21 07:19:30;;;;;;;;;;;17.90;99.90;;;;;;5070779;28;19966;-64
2024/01/21 07:21:56;;;;;;;;;;;18.00;99.90;;;;;;5071077;28;19912;-63
2024/01/21 07:24:21;;;;;;;;;;;17.90;99.90;;;;;;5071373;28;19913;-64
2024/01/21 07:26:47;;;;;;;;;;;18.30;99.90;;;;;;5071877;28;19912;-64
2024/01/21 07:29:13;;;;;;;;;;;18.70;99.90;;;;;;5071477;28;20344;-64
2024/01/21 07:31:39;;;;;;;;;;;19.10;99.90;;;;;;5070534;28;19917;-64
2024/01/21 07:34:09;;;;;;;;;;;20.00;99.90;;;;;;5071399;28;19916;-64
2024/01/21 07:36:35;;;;;;;;;;;20.50;99.90;;;;;;5053269;28;19909;-63
2024/01/21 07:39:03;;;;;;;;;;;20.30;99.90;;;;;;5071001;28;19909;-64
2024/01/21 07:41:30;;;;;;;;;;;20.50;99.90;;;;;;5053207;28;19916;-64
2024/01/21 07:43:56;;;;;;;;;;;20.70;99.90;;;;;;5071392;28;19909;-64
2024/01/21 07:46:21;;;;;;;;;;;21.30;99.90;;;;;;5071335;28;19909;-63
2024/01/21 07:48:48;;;;;;;;;;;20.90;99.90;;;;;;5071249;28;19928;-65
2024/01/21 07:51:16;;;;;;;;;;;20.40;99.90;;;;;;5071236;28;20276;-64
2024/01/21 07:53:42;;;;;;;;;;;20.40;99.90;;;;;;5071263;28;19977;-64
2024/01/21 07:56:07;;;;;;;;;;;20.10;99.90;;;;;;5071280;28;20006;-64
2024/01/21 07:58:33;;;;;;;;;;;18.90;99.90;;;;;;5071135;28;19918;-64
2024/01/21 08:00:59;;;;;;;;;;;18.40;99.90;;;;;;5071043;28;19965;-66
2024/01/21 08:03:31;;;;;;;;;;;18.00;99.90;;;;;;5070801;28;19913;-60
2024/01/21 08:05:57;;;;;;;;;;;17.40;99.90;;;;;;5068518;28;19915;-61
2024/01/21 08:08:23;;;;;;;;;;;16.80;99.90;;;;;;5052480;28;19908;-63
2024/01/21 08:10:48;;;;;;;;;;;16.50;99.90;;;;;;5070500;28;19930;-63
2024/01/21 08:13:14;;;;;;;;;;;16.60;99.90;;;;;;5052734;28;19963;-64
2024/01/21 08:15:40;;;;;;;;;;;16.30;99.90;;;;;;5070789;28;19913;-64
2024/01/21 08:18:06;;;;;;;;;;;16.40;99.90;;;;;;5070375;28;19908;-65
2024/01/21 08:20:32;;;;;;;;;;;16.60;99.90;;;;;;5070520;28;20226;-64
2024/01/21 08:22:59;;;;;;;;;;;16.40;99.90;;;;;;5062410;28;19923;-64
2024/01/21 08:25:24;;;;;;;;;;;16.30;99.90;;;;;;5065784;28;19955;-63
2024/01/21 08:27:50;;;;;;;;;;;16.20;99.90;;;;;;5070674;28;19948;-63
2024/01/21 08:30:16;;;;;;;;;;;16.10;99.90;;;;;;5070608;28;19919;-63
2024/01/21 08:32:42;;;;;;;;;;;15.70;99.90;;;;;;5070437;28;19920;-63
2024/01/21 08:35:08;;;;;;;;;;;15.60;99.90;;;;;;5070336;28;19908;-64
2024/01/21 08:37:34;;;;;;;;;;;15.50;99.90;;;;;;5070576;28;19988;-64
2024/01/21 08:39:59;;;;;;;;;;;15.60;99.90;;;;;;5069834;28;19920;-64
2024/01/21 08:42:25;;;;;;;;;;;15.60;99.90;;;;;;5071830;28;20026;-63
2024/01/21 08:44:52;;;;;;;;;;;15.10;99.90;;;;;;5062710;28;19963;-63
2024/01/21 08:47:18;;;;;;;;;;;14.90;99.90;;;;;;5068597;28;19915;-63
2024/01/21 08:49:44;;;;;;;;;;;14.90;99.90;;;;;;5072861;28;20052;-64
2024/01/21 08:52:09;;;;;;;;;;;15.00;99.90;;;;;;5073736;28;19991;-64
2024/01/21 08:54:35;;;;;;;;;;;14.80;99.90;;;;;;5055741;28;20383;-64
2024/01/21 08:57:02;;;;;;;;;;;14.70;99.90;;;;;;5073512;28;20237;-64
2024/01/21 08:59:28;;;;;;;;;;;14.50;99.90;;;;;;5073846;28;19917;-64
2024/01/21 09:01:53;;;;;;;;;;;14.30;99.90;;;;;;5073959;28;19977;-61
2024/01/21 09:04:19;;;;;;;;;;;14.00;99.90;;;;;;5074362;28;19938;-61
2024/01/21 09:06:45;;;;;;;;;;;14.20;99.90;;;;;;5073915;28;19908;-64
2024/01/21 09:09:12;;;;;;;;;;;14.20;99.90;;;;;;5073674;28;19943;-64
2024/01/21 09:11:40;;;;;;;;;;;14.10;99.90;;;;;;5055640;28;19913;-64
2024/01/21 09:14:06;;;;;;;;;;;14.10;99.90;;;;;;5055582;28;20284;-64
2024/01/21 09:16:33;;;;;;;;;;;14.00;99.90;;;;;;5055370;28;19908;-64
2024/01/21 09:18:59;;;;;;;;;;;14.00;99.90;;;;;;5074158;28;19908;-64
2024/01/21 09:21:25;;;;;;;;;;;14.10;99.90;;;;;;5073690;28;20301;-64
2024/01/21 09:23:53;;;;;;;;;;;14.00;99.90;;;;;;5072605;28;19919;-64
2024/01/21 09:26:18;;;;;;;;;;;13.80;99.90;;;;;;5072600;28;19908;-64
2024/01/21 09:28:44;;;;;;;;;;;14.10;99.90;;;;;;5072378;28;19935;-66
2024/01/21 09:31:10;;;;;;;;;;;13.90;99.90;;;;;;5072501;28;19927;-64
2024/01/21 09:33:36;;;;;;;;;;;13.70;99.90;;;;;;5072427;28;19909;-65
2024/01/21 09:36:02;;;;;;;;;;;13.70;99.90;;;;;;5072117;28;19909;-65
2024/01/21 09:38:31;;;;;;;;;;;13.70;99.90;;;;;;5053927;28;19919;-61
2024/01/21 09:41:03;;;;;;;;;;;13.80;99.90;;;;;;5071889;28;19946;-64
2024/01/21 09:43:29;;;;;;;;;;;13.90;99.90;;;;;;5069596;28;19909;-64
2024/01/21 09:45:56;;;;;;;;;;;13.90;99.90;;;;;;5054193;28;20246;-63
2024/01/21 09:48:22;;;;;;;;;;;13.90;99.90;;;;;;5053853;28;20319;-63
2024/01/21 09:50:49;;;;;;;;;;;13.70;99.90;;;;;;5071638;28;19912;-63
2024/01/21 09:53:14;;;;;;;;;;;13.60;99.90;;;;;;5071617;28;19925;-63
2024/01/21 09:55:40;;;;;;;;;;;13.30;99.90;;;;;;5072288;28;20317;-64
2024/01/21 09:58:07;;;;;;;;;;;13.50;99.90;;;;;;5072395;28;20360;-64
2024/01/21 10:00:34;;;;;;;;;;;13.60;99.90;;;;;;5072751;28;19998;-64
2024/01/21 10:03:00;;;;;;;;;;;13.80;99.90;;;;;;5054476;28;19908;-63
2024/01/21 10:05:25;;;;;;;;;;;14.10;99.90;;;;;;5072588;28;19909;-64
2024/01/21 10:07:52;;;;;;;;;;;14.40;99.90;;;;;;5054458;28;19952;-64
2024/01/21 10:10:17;;;;;;;;;;;14.50;99.90;;;;;;5072433;28;19908;-65
2024/01/21 10:12:44;;;;;;;;;;;14.50;99.90;;;;;;5072473;28;19943;-64
2024/01/21 10:15:13;;;;;;;;;;;14.70;99.90;;;;;;5071343;28;19919;-64
2024/01/21 10:17:38;;;;;;;;;;;14.60;99.90;;;;;;5071056;28;20011;-65
2024/01/21 10:20:09;;;;;;;;;;;14.60;99.90;;;;;;5072567;28;20282;-64
2024/01/21 10:22:35;;;;;;;;;;;14.70;99.90;;;;;;5072494;28;19913;-62
2024/01/21 10:25:03;;;;;;;;;;;14.90;99.90;;;;;;5072325;28;19909;-64
2024/01/21 10:27:29;;;;;;;;;;;14.90;99.90;;;;;;5070786;28;19938;-64
2024/01/21 10:29:56;;;;;;;;;;;14.40;99.90;;;;;;5072285;28;19957;-64
2024/01/21 10:32:21;;;;;;;;;;;14.00;99.90;;;;;;5072042;28;19939;-64
2024/01/21 10:34:50;;;;;;;;;;;14.30;99.90;;;;;;5068795;28;20392;-63
2024/01/21 10:37:16;;;;;;;;;;;14.40;99.90;;;;;;5071868;28;19908;-67
2024/01/21 10:39:49;;;;;;;;;;;14.50;99.90;;;;;;5053433;28;19920;-67
2024/01/21 10:42:15;;;;;;;;;;;14.40;99.90;;;;;;5072051;28;19919;-65
2024/01/21 10:44:41;;;;;;;;;;;14.00;99.90;;;;;;5053688;28;19916;-66
2024/01/21 10:47:10;;;;;;;;;;;13.70;99.90;;;;;;5071761;28;19908;-66
2024/01/21 10:49:36;;;;;;;;;;;13.60;99.90;;;;;;5072045;28;19927;-69
2024/01/21 10:52:02;;;;;;;;;;;13.60;99.90;;;;;;5066251;28;19916;-68
2024/01/21 10:54:28;;;;;;;;;;;13.70;99.90;;;;;;5069317;28;20068;-67
2024/01/21 10:56:54;;;;;;;;;;;13.80;99.90;;;;;;5054188;28;19955;-67
2024/01/21 10:59:21;;;;;;;;;;;13.90;99.90;;;;;;5058777;28;19908;-67
2024/01/21 11:01:49;;;;;;;;;;;14.10;99.90;;;;;;5071920;28;20301;-67
2024/01/21 11:04:16;;;;;;;;;;;14.10;99.90;;;;;;5071800;28;19909;-67
2024/01/21 11:06:46;;;;;;;;;;;13.90;99.90;;;;;;5070088;28;19919;-65
2024/01/21 11:09:13;;;;;;;;;;;13.90;99.90;;;;;;5071698;28;20012;-66
2024/01/21 11:11:41;;;;;;;;;;;14.10;99.90;;;;;;5065402;28;19962;-65
2024/01/21 11:14:27;;;;;;;;;;;13.80;99.90;;;;;;5053384;28;19912;-65
2024/01/21 11:16:58;;;;;;;;;;;13.60;99.90;;;;;;5053275;28;19943;-65
2024/01/21 11:19:24;;;;;;;;;;;13.50;99.90;;;;;;5071846;28;20336;-65
2024/01/21 11:21:54;;;;;;;;;;;13.60;99.90;;;;;;5071555;28;19935;-65
2024/01/21 11:24:27;;;;;;;;;;;13.70;99.90;;;;;;5071694;28;19908;-65
2024/01/21 11:26:53;;;;;;;;;;;13.80;99.90;;;;;;5072009;28;19955;-65
2024/01/21 11:29:25;;;;;;;;;;;13.80;99.90;;;;;;5071420;28;19913;-65
2024/01/21 11:31:52;;;;;;;;;;;13.70;99.90;;;;;;5071609;28;19927;-65
2024/01/21 11:34:18;;;;;;;;;;;13.90;99.90;;;;;;5071517;28;19909;-65
2024/01/21 11:36:45;;;;;;;;;;;13.80;99.90;;;;;;5071307;28;19909;-64
2024/01/21 11:39:11;;;;;;;;;;;14.10;99.90;;;;;;5070795;28;19908;-65
2024/01/21 11:41:41;;;;;;;;;;;14.20;99.90;;;;;;5071591;28;19909;-65
2024/01/21 11:44:23;;;;;;;;;;;14.20;99.90;;;;;;5071195;28;19942;-66
2024/01/21 11:46:49;;;;;;;;;;;14.00;99.90;;;;;;5053021;28;20006;-65
2024/01/21 11:49:16;;;;;;;;;;;14.20;99.90;;;;;;5070953;28;19908;-62
2024/01/21 11:51:44;;;;;;;;;;;14.00;99.90;;;;;;5071177;28;19917;-66
2024/01/21 11:54:10;;;;;;;;;;;14.00;99.90;;;;;;5071034;28;20367;-64
2024/01/21 11:56:36;;;;;;;;;;;14.00;99.90;;;;;;5071615;28;19999;-64
2024/01/21 11:59:04;;;;;;;;;;;13.90;99.90;;;;;;5070384;28;19991;-67
2024/01/21 12:01:30;;;;;;;;;;;14.00;99.90;;;;;;5069125;28;19919;-67
2024/01/21 12:03:56;;;;;;;;;;;13.60;99.90;;;;;;5068937;28;19963;-66
2024/01/21 12:06:24;;;;;;;;;;;13.50;99.90;;;;;;5070023;28;20087;-68
2024/01/21 12:08:50;;;;;;;;;;;13.40;99.90;;;;;;5070195;28;20007;-66
2024/01/21 12:11:16;;;;;;;;;;;13.40;99.90;;;;;;5070571;28;19999;-66
2024/01/21 12:13:45;;;;;;;;;;;13.00;99.90;;;;;;5071189;28;19912;-67
2024/01/21 12:16:11;;;;;;;;;;;12.80;99.90;;;;;;5070746;28;20356;-65
2024/01/21 12:18:39;;;;;;;;;;;13.00;99.90;;;;;;5074453;28;20237;-66
2024/01/21 12:21:05;;;;;;;;;;;13.30;99.90;;;;;;5075042;28;20388;-65
2024/01/21 12:23:31;;;;;;;;;;;13.40;99.90;;;;;;5074560;28;19952;-66
2024/01/21 12:25:57;;;;;;;;;;;13.10;99.90;;;;;;5074309;28;19908;-65
2024/01/21 12:28:23;;;;;;;;;;;13.20;99.90;;;;;;5074447;28;20311;-65
2024/01/21 12:30:50;;;;;;;;;;;13.20;99.90;;;;;;5074647;28;19915;-65
2024/01/21 12:33:15;;;;;;;;;;;13.10;99.90;;;;;;5074563;28;20321;-65
2024/01/21 12:35:44;;;;;;;;;;;13.00;99.90;;;;;;5074490;28;19916;-65
2024/01/21 12:38:10;;;;;;;;;;;13.20;99.90;;;;;;5074432;28;19908;-65
2024/01/21 12:40:36;;;;;;;;;;;13.40;99.90;;;;;;5055770;28;19921;-65
2024/01/21 12:43:02;;;;;;;;;;;13.50;99.90;;;;;;5074557;28;19915;-65
2024/01/21 12:45:27;;;;;;;;;;;13.70;99.90;;;;;;5074483;28;20362;-66
2024/01/21 12:47:53;;;;;;;;;;;13.70;99.90;;;;;;5056206;28;19979;-66
2024/01/21 12:50:20;;;;;;;;;;;13.70;99.90;;;;;;5056111;28;19909;-66
2024/01/21 12:52:45;;;;;;;;;;;13.80;99.90;;;;;;5074194;28;19920;-65
2024/01/21 12:55:11;;;;;;;;;;;13.60;99.90;;;;;;5074041;28;20313;-66
2024/01/21 12:57:37;;;;;;;;;;;13.50;99.90;;;;;;5074423;28;19915;-66
2024/01/21 13:00:04;;;;;;;;;;;13.50;99.90;;;;;;5074050;28;19908;-66
2024/01/21 13:02:30;;;;;;;;;;;13.50;99.90;;;;;;5073941;28;20110;-66
2024/01/21 13:04:56;;;;;;;;;;;13.50;99.90;;;;;;5074224;28;20423;-65
2024/01/21 13:07:22;;;;;;;;;;;13.40;99.90;;;;;;5073930;28;19938;-65
2024/01/21 13:09:48;;;;;;;;;;;13.30;99.90;;;;;;5073985;28;19916;-65
2024/01/21 13:12:14;;;;;;;;;;;13.10;99.90;;;;;;5073739;28;19928;-66
2024/01/21 13:14:40;;;;;;;;;;;13.10;99.90;;;;;;5073726;28;19908;-66
2024/01/21 13:17:06;;;;;;;;;;;13.20;99.90;;;;;;5073858;28;19931;-65
2024/01/21 13:19:34;;;;;;;;;;;13.10;99.90;;;;;;5074072;28;19957;-66
2024/01/21 13:22:05;;;;;;;;;;;13.20;99.90;;;;;;5073788;28;19916;-66
2024/01/21 13:24:31;;;;;;;;;;;13.40;99.90;;;;;;5073974;28;20083;-66
2024/01/21 13:27:02;;;;;;;;;;;13.30;99.90;;;;;;5073657;28;19915;-66
2024/01/21 13:32:12;;;;;;;;;;;13.00;99.90;;;;;;5073825;28;19997;-66
2024/01/21 13:34:38;;;;;;;;;;;12.90;99.90;;;;;;5073870;28;19939;-68
2024/01/21 13:37:10;;;;;;;;;;;12.90;99.90;;;;;;5074128;28;20357;-68
2024/01/21 13:39:35;;;;;;;;;;;12.80;99.90;;;;;;5073271;28;20390;-65
2024/01/21 13:42:02;;;;;;;;;;;12.70;99.90;;;;;;5073168;28;19919;-66
2024/01/21 13:44:30;;;;;;;;;;;12.60;99.90;;;;;;5073874;28;19916;-66
2024/01/21 13:46:57;;;;;;;;;;;12.40;99.90;;;;;;5073375;28;19920;-67
2024/01/21 13:49:23;;;;;;;;;;;12.50;99.90;;;;;;5073340;28;20268;-67
2024/01/21 13:51:49;;;;;;;;;;;12.60;99.90;;;;;;5073497;28;19984;-66
2024/01/21 13:54:14;;;;;;;;;;;12.80;99.90;;;;;;5054919;28;19916;-67
2024/01/21 13:56:40;;;;;;;;;;;12.90;99.90;;;;;;5073038;28;19908;-66
2024/01/21 13:59:07;;;;;;;;;;;13.00;99.90;;;;;;5055104;28;19948;-66
2024/01/21 14:01:34;;;;;;;;;;;13.00;99.90;;;;;;5072408;28;19962;-65
2024/01/21 14:04:01;;;;;;;;;;;13.00;99.90;;;;;;5072327;28;20003;-66
2024/01/21 14:06:27;;;;;;;;;;;12.90;99.90;;;;;;5072781;28;20054;-65
2024/01/21 14:08:52;;;;;;;;;;;12.80;99.90;;;;;;5072594;28;19913;-66
2024/01/21 14:11:18;;;;;;;;;;;12.60;99.90;;;;;;5072217;28;19920;-65
2024/01/21 14:13:44;;;;;;;;;;;12.70;99.90;;;;;;5054240;28;20364;-68